createdAt,value
2018-09-11T00:01:04.875Z,12.29
2018-09-11T00:02:40.125Z,12.34
2018-09-11T00:04:15.839Z,12.34
2018-09-11T00:05:51.254Z,12.33
2018-09-11T00:07:27.052Z,12.42
2018-09-11T00:09:02.289Z,12.43
2018-09-11T00:10:37.231Z,12.42
2018-09-11T00:12:14.085Z,12.39
2018-09-11T00:13:50.081Z,12.42
2018-09-11T00:15:25.682Z,12.42
2018-09-11T00:17:00.808Z,12.38
2018-09-11T00:18:36.264Z,12.34
2018-09-11T00:20:12.158Z,12.37
2018-09-11T00:21:47.313Z,12.33
2018-09-11T00:23:23.079Z,12.37
2018-09-11T00:24:59.808Z,12.35
2018-09-11T00:26:34.720Z,12.34
2018-09-11T00:28:09.640Z,12.27
2018-09-11T00:29:46.350Z,12.26
2018-09-11T00:31:25.740Z,12.31
2018-09-11T00:33:01.939Z,12.27
2018-09-11T00:34:37.599Z,12.25
2018-09-11T00:36:15.080Z,12.27
2018-09-11T00:37:50.660Z,12.20
2018-09-11T00:39:26.367Z,12.16
2018-09-11T00:41:03.389Z,12.18
2018-09-11T00:42:38.503Z,12.11
2018-09-11T00:44:13.862Z,12.07
2018-09-11T00:45:52.435Z,12.08
2018-09-11T00:47:27.274Z,12.10
2018-09-11T00:49:03.400Z,12.03
2018-09-11T00:50:38.200Z,11.98
2018-09-11T00:52:13.575Z,11.91
2018-09-11T00:53:49.321Z,11.89
2018-09-11T00:55:25.892Z,11.92
2018-09-11T00:57:01.163Z,11.91
2018-09-11T00:58:40.057Z,11.90
2018-09-11T01:00:18.185Z,11.84
2018-09-11T01:01:59.322Z,11.85
2018-09-11T01:03:38.331Z,11.83
2018-09-11T01:05:24.716Z,11.74
2018-09-11T01:07:08.691Z,11.69
2018-09-11T01:08:50.605Z,11.62
2018-09-11T01:10:32.386Z,11.64
2018-09-11T01:12:11.046Z,11.63
2018-09-11T01:13:48.749Z,11.54
2018-09-11T01:15:27.484Z,11.49
2018-09-11T01:17:06.985Z,11.48
2018-09-11T01:18:46.467Z,11.42
2018-09-11T01:20:23.919Z,11.39
2018-09-11T01:22:06.306Z,11.42
2018-09-11T01:23:42.771Z,11.41
2018-09-11T01:25:20.290Z,11.34
2018-09-11T01:26:57.057Z,11.31
2018-09-11T01:28:31.983Z,11.27
2018-09-11T01:30:08.909Z,11.20
2018-09-11T01:31:45.530Z,11.23
2018-09-11T01:33:21.205Z,11.32
2018-09-11T01:34:57.387Z,11.22
2018-09-11T01:36:32.607Z,11.20
2018-09-11T01:38:09.558Z,11.21
2018-09-11T01:39:45.129Z,11.20
2018-09-11T01:41:20.684Z,11.14
2018-09-11T01:42:56.089Z,11.12
2018-09-11T01:44:31.926Z,11.11
2018-09-11T01:46:08.042Z,11.06
2018-09-11T01:47:43.670Z,11.00
2018-09-11T01:49:19.944Z,11.02
2018-09-11T01:50:56.004Z,11.04
2018-09-11T01:52:31.510Z,11.01
2018-09-11T01:54:06.833Z,10.95
2018-09-11T01:55:41.894Z,10.91
2018-09-11T01:57:17.993Z,10.91
2018-09-11T01:58:56.599Z,10.91
2018-09-11T02:00:31.948Z,10.93
2018-09-11T02:02:07.427Z,10.87
2018-09-11T02:03:42.699Z,10.85
2018-09-11T02:05:18.664Z,10.86
2018-09-11T02:06:53.652Z,10.91
2018-09-11T02:08:29.161Z,10.87
2018-09-11T02:10:04.591Z,10.93
2018-09-11T02:11:40.877Z,10.92
2018-09-11T02:13:16.897Z,10.83
2018-09-11T02:14:53.835Z,10.96
2018-09-11T02:16:29.053Z,11.01
2018-09-11T02:18:07.697Z,10.97
2018-09-11T02:19:42.801Z,10.93
2018-09-11T02:21:18.847Z,10.97
2018-09-11T02:22:53.867Z,11.01
2018-09-11T02:24:29.047Z,10.97
2018-09-11T02:26:06.171Z,10.97
2018-09-11T02:27:41.286Z,11.06
2018-09-11T02:29:16.372Z,11.03
2018-09-11T02:30:54.201Z,11.02
2018-09-11T02:32:29.891Z,10.94
2018-09-11T02:34:05.929Z,10.97
2018-09-11T02:35:41.208Z,10.96
2018-09-11T02:37:16.464Z,10.98
2018-09-11T02:38:51.706Z,11.01
2018-09-11T02:40:26.773Z,11.03
2018-09-11T02:42:02.373Z,11.02
2018-09-11T02:43:38.590Z,11.01
2018-09-11T02:45:14.990Z,10.99
2018-09-11T02:46:50.210Z,11.01
2018-09-11T02:48:25.381Z,10.98
2018-09-11T02:50:01.245Z,10.99
2018-09-11T02:51:36.899Z,10.98
2018-09-11T02:53:11.965Z,11.00
2018-09-11T02:54:47.308Z,10.97
2018-09-11T02:56:23.693Z,10.96
2018-09-11T02:57:58.992Z,10.96
2018-09-11T02:59:34.333Z,10.98
2018-09-11T03:01:10.716Z,10.97
2018-09-11T03:02:47.586Z,10.99
2018-09-11T03:04:23.188Z,11.00
2018-09-11T03:05:58.688Z,10.94
2018-09-11T03:07:33.928Z,10.94
2018-09-11T03:09:12.571Z,10.94
2018-09-11T03:10:48.028Z,10.95
2018-09-11T03:12:25.994Z,10.91
2018-09-11T03:14:01.983Z,10.86
2018-09-11T03:15:37.282Z,10.85
2018-09-11T03:17:14.072Z,10.81
2018-09-11T03:18:49.559Z,10.77
2018-09-11T03:20:25.890Z,10.75
2018-09-11T03:22:01.494Z,10.72
2018-09-11T03:23:36.830Z,10.70
2018-09-11T03:25:13.070Z,10.76
2018-09-11T03:26:51.570Z,10.67
2018-09-11T03:28:27.579Z,10.73
2018-09-11T03:30:05.608Z,10.83
2018-09-11T03:31:40.908Z,10.77
2018-09-11T03:33:16.142Z,10.76
2018-09-11T03:34:51.924Z,10.69
2018-09-11T03:36:27.905Z,10.76
2018-09-11T03:38:03.418Z,10.75
2018-09-11T03:39:39.299Z,10.71
2018-09-11T03:41:14.493Z,10.71
2018-09-11T03:42:49.705Z,10.78
2018-09-11T03:44:25.963Z,10.78
2018-09-11T03:46:01.666Z,10.75
2018-09-11T03:47:36.515Z,10.75
2018-09-11T03:49:12.670Z,10.73
2018-09-11T03:50:48.478Z,10.70
2018-09-11T03:52:23.637Z,10.65
2018-09-11T03:53:58.732Z,10.68
2018-09-11T03:55:33.620Z,10.78
2018-09-11T03:57:08.578Z,10.78
2018-09-11T03:58:43.657Z,10.74
2018-09-11T04:00:18.733Z,10.77
2018-09-11T04:01:54.492Z,10.73
2018-09-11T04:03:29.760Z,10.74
2018-09-11T04:05:04.717Z,10.75
2018-09-11T04:06:40.019Z,10.81
2018-09-11T04:08:14.835Z,10.82
2018-09-11T04:09:50.275Z,10.80
2018-09-11T04:11:25.620Z,10.79
2018-09-11T04:13:00.464Z,10.75
2018-09-11T04:14:35.257Z,10.77
2018-09-11T04:16:10.170Z,10.74
2018-09-11T04:17:45.564Z,10.70
2018-09-11T04:19:20.371Z,10.64
2018-09-11T04:20:56.319Z,10.70
2018-09-11T04:22:31.445Z,10.68
2018-09-11T04:24:06.258Z,10.64
2018-09-11T04:25:41.883Z,10.63
2018-09-11T04:27:17.056Z,10.68
2018-09-11T04:28:54.115Z,10.74
2018-09-11T04:30:29.151Z,10.77
2018-09-11T04:32:04.776Z,10.86
2018-09-11T04:33:40.366Z,10.93
2018-09-11T04:35:17.672Z,10.96
2018-09-11T04:36:53.400Z,11.04
2018-09-11T04:38:28.478Z,11.11
2018-09-11T04:40:03.423Z,11.24
2018-09-11T04:41:40.910Z,11.28
2018-09-11T04:43:16.387Z,11.33
2018-09-11T04:44:51.956Z,11.34
2018-09-11T04:46:27.498Z,11.43
2018-09-11T04:48:02.913Z,11.47
2018-09-11T04:49:39.091Z,11.56
2018-09-11T04:51:14.867Z,11.57
2018-09-11T04:52:49.920Z,11.58
2018-09-11T04:54:25.338Z,11.65
2018-09-11T04:56:02.146Z,11.68
2018-09-11T04:57:37.757Z,11.72
2018-09-11T04:59:12.684Z,11.74
2018-09-11T05:00:48.220Z,11.78
2018-09-11T05:02:23.054Z,11.86
2018-09-11T05:03:58.125Z,11.86
2018-09-11T05:05:33.135Z,11.87
2018-09-11T05:07:08.281Z,11.94
2018-09-11T05:08:44.142Z,11.91
2018-09-11T05:10:19.149Z,11.93
2018-09-11T05:11:54.808Z,12.02
2018-09-11T05:13:30.045Z,12.02
2018-09-11T05:15:07.362Z,12.05
2018-09-11T05:16:43.960Z,12.08
2018-09-11T05:18:22.200Z,12.13
2018-09-11T05:19:59.186Z,12.14
2018-09-11T05:21:34.192Z,12.17
2018-09-11T05:23:10.167Z,12.19
2018-09-11T05:24:45.970Z,12.24
2018-09-11T05:26:24.376Z,12.29
2018-09-11T05:28:00.706Z,12.30
2018-09-11T05:29:43.330Z,12.33
2018-09-11T05:31:44.904Z,12.37
2018-09-11T05:35:18.207Z,12.48
2018-09-11T05:36:53.327Z,12.49
2018-09-11T05:38:28.501Z,12.59
2018-09-11T05:40:03.589Z,12.60
2018-09-11T05:41:42.250Z,12.63
2018-09-11T05:43:17.241Z,12.63
2018-09-11T05:44:52.187Z,12.69
2018-09-11T05:46:28.272Z,12.71
2018-09-11T05:48:03.152Z,12.75
2018-09-11T05:49:38.079Z,12.82
2018-09-11T05:51:13.050Z,12.84
2018-09-11T05:52:47.916Z,12.93
2018-09-11T05:54:23.210Z,12.93
2018-09-11T05:56:02.300Z,12.93
2018-09-11T05:57:38.295Z,13.04
2018-09-11T05:59:13.116Z,13.03
2018-09-11T06:00:48.147Z,13.10
2018-09-11T06:02:23.431Z,13.08
2018-09-11T06:03:58.356Z,13.20
2018-09-11T06:05:33.235Z,13.25
2018-09-11T06:07:08.259Z,13.25
2018-09-11T06:08:44.299Z,13.29
2018-09-11T06:10:19.426Z,13.30
2018-09-11T06:11:54.628Z,13.39
2018-09-11T06:13:30.081Z,13.32
2018-09-11T06:15:07.924Z,13.40
2018-09-11T06:16:43.791Z,13.44
2018-09-11T06:18:19.171Z,13.45
2018-09-11T06:19:54.079Z,13.42
2018-09-11T06:21:29.316Z,13.45
2018-09-11T06:23:04.628Z,13.56
2018-09-11T06:24:40.415Z,13.59
2018-09-11T06:26:15.739Z,13.60
2018-09-11T06:27:52.247Z,13.67
2018-09-11T06:29:27.144Z,13.62
2018-09-11T06:31:03.736Z,13.65
2018-09-11T06:32:41.833Z,13.66
2018-09-11T06:34:16.652Z,13.75
2018-09-11T06:35:52.693Z,13.78
2018-09-11T06:37:28.039Z,13.78
2018-09-11T06:39:03.012Z,13.77
2018-09-11T06:40:38.186Z,13.68
2018-09-11T06:42:13.011Z,13.62
2018-09-11T06:43:48.443Z,13.77
2018-09-11T06:45:23.300Z,13.84
2018-09-11T06:46:58.632Z,13.73
2018-09-11T06:48:33.459Z,13.74
2018-09-11T06:50:09.278Z,13.76
2018-09-11T06:51:45.244Z,13.80
2018-09-11T06:53:22.275Z,13.82
2018-09-11T06:54:57.955Z,14.00
2018-09-11T06:56:33.350Z,14.10
2018-09-11T06:58:10.446Z,14.21
2018-09-11T06:59:45.575Z,14.25
2018-09-11T07:01:20.366Z,14.17
2018-09-11T07:02:55.360Z,14.25
2018-09-11T07:04:30.247Z,14.45
2018-09-11T07:06:06.221Z,14.46
2018-09-11T07:07:41.413Z,14.47
2018-09-11T07:09:18.193Z,14.39
2018-09-11T07:10:55.572Z,14.38
2018-09-11T07:12:32.600Z,14.53
2018-09-11T07:14:07.488Z,14.60
2018-09-11T07:15:43.082Z,14.61
2018-09-11T07:17:18.001Z,14.61
2018-09-11T07:18:53.747Z,14.72
2018-09-11T07:20:28.959Z,14.59
2018-09-11T07:22:05.484Z,14.60
2018-09-11T07:23:40.340Z,14.75
2018-09-11T07:25:16.303Z,14.85
2018-09-11T07:26:51.651Z,14.99
2018-09-11T07:28:28.013Z,15.07
2018-09-11T07:30:05.234Z,15.12
2018-09-11T07:31:40.608Z,15.10
2018-09-11T07:33:17.520Z,15.10
2018-09-11T07:34:53.785Z,15.08
2018-09-11T07:36:34.261Z,15.11
2018-09-11T07:38:09.766Z,15.22
2018-09-11T07:39:48.645Z,15.59
2018-09-11T07:41:24.057Z,15.69
2018-09-11T07:42:58.869Z,16.10
2018-09-11T07:44:34.443Z,16.18
2018-09-11T07:46:09.695Z,16.46
2018-09-11T07:47:44.614Z,16.38
2018-09-11T07:49:21.009Z,16.41
2018-09-11T07:50:59.785Z,16.30
2018-09-11T07:52:35.036Z,16.30
2018-09-11T07:54:10.087Z,16.34
2018-09-11T07:55:45.504Z,16.20
2018-09-11T07:57:20.272Z,16.30
2018-09-11T07:58:56.626Z,16.31
2018-09-11T08:00:34.636Z,16.59
2018-09-11T08:02:09.466Z,16.68
2018-09-11T08:03:45.840Z,16.84
2018-09-11T08:05:22.889Z,16.73
2018-09-11T08:07:00.329Z,16.95
2018-09-11T08:08:37.357Z,16.98
2018-09-11T08:10:17.024Z,16.86
2018-09-11T08:11:52.224Z,17.11
2018-09-11T08:13:29.441Z,17.11
2018-09-11T08:15:09.912Z,17.29
2018-09-11T08:16:44.724Z,17.34
2018-09-11T08:18:20.204Z,17.63
2018-09-11T08:19:58.684Z,17.66
2018-09-11T08:21:34.129Z,17.73
2018-09-11T08:23:09.265Z,17.54
2018-09-11T08:24:46.379Z,17.69
2018-09-11T08:26:21.606Z,17.94
2018-09-11T08:27:56.414Z,17.87
2018-09-11T08:29:35.112Z,17.63
2018-09-11T08:31:10.189Z,17.46
2018-09-11T08:32:45.954Z,17.64
2018-09-11T08:34:20.817Z,17.90
2018-09-11T08:35:57.323Z,17.98
2018-09-11T08:37:32.927Z,17.64
2018-09-11T08:39:12.305Z,17.22
2018-09-11T08:40:48.999Z,17.45
2018-09-11T08:42:23.966Z,17.32
2018-09-11T08:44:00.013Z,17.38
2018-09-11T08:45:36.759Z,17.51
2018-09-11T08:47:13.469Z,17.70
2018-09-11T08:48:49.731Z,17.87
2018-09-11T08:50:25.331Z,17.88
2018-09-11T08:52:00.649Z,17.96
2018-09-11T08:53:36.453Z,17.95
2018-09-11T08:55:13.977Z,18.08
2018-09-11T08:56:50.505Z,18.32
2018-09-11T08:58:25.945Z,18.20
2018-09-11T09:00:04.963Z,18.30
2018-09-11T09:01:41.186Z,18.62
2018-09-11T09:03:16.013Z,18.57
2018-09-11T09:04:50.925Z,18.41
2018-09-11T09:06:26.194Z,18.25
2018-09-11T09:08:02.412Z,18.46
2018-09-11T09:09:39.105Z,18.37
2018-09-11T09:11:14.660Z,18.52
2018-09-11T09:12:49.764Z,18.53
2018-09-11T09:14:25.065Z,18.62
2018-09-11T09:16:00.365Z,18.25
2018-09-11T09:17:35.611Z,18.42
2018-09-11T09:19:11.511Z,18.91
2018-09-11T09:20:49.266Z,18.69
2018-09-11T09:22:24.665Z,18.39
2018-09-11T09:24:00.135Z,18.49
2018-09-11T09:25:37.451Z,18.82
2018-09-11T09:27:13.190Z,19.16
2018-09-11T09:28:49.274Z,19.30
2018-09-11T09:30:28.523Z,19.52
2018-09-11T09:32:05.251Z,19.17
2018-09-11T09:33:40.829Z,19.45
2018-09-11T09:35:19.199Z,19.58
2018-09-11T09:36:54.436Z,19.67
2018-09-11T09:38:31.160Z,19.83
2018-09-11T09:40:11.099Z,20.02
2018-09-11T09:41:46.376Z,19.46
2018-09-11T09:43:22.593Z,19.33
2018-09-11T09:44:59.200Z,19.46
2018-09-11T09:46:35.107Z,19.54
2018-09-11T09:48:10.860Z,19.46
2018-09-11T09:49:47.304Z,19.42
2018-09-11T09:51:24.021Z,19.40
2018-09-11T09:53:01.366Z,19.18
2018-09-11T09:54:38.173Z,18.95
2018-09-11T09:56:15.049Z,19.27
2018-09-11T09:57:50.308Z,19.59
2018-09-11T09:59:26.812Z,19.39
2018-09-11T10:01:10.777Z,19.38
2018-09-11T10:03:16.776Z,19.42
2018-09-11T10:04:52.026Z,19.67
2018-09-11T10:06:28.083Z,19.64
2018-09-11T10:08:03.404Z,19.83
2018-09-11T10:09:38.609Z,19.83
2018-09-11T10:11:14.689Z,20.40
2018-09-11T10:12:51.741Z,20.47
2018-09-11T10:14:26.708Z,20.60
2018-09-11T10:16:03.732Z,20.61
2018-09-11T10:17:39.555Z,20.55
2018-09-11T10:19:15.366Z,20.30
2018-09-11T10:20:52.811Z,20.68
2018-09-11T10:22:28.174Z,20.72
2018-09-11T10:24:06.138Z,20.73
2018-09-11T10:25:41.590Z,20.39
2018-09-11T10:27:16.584Z,20.32
2018-09-11T10:28:53.445Z,20.86
2018-09-11T10:30:31.693Z,21.06
2018-09-11T10:32:08.052Z,20.51
2018-09-11T10:33:45.096Z,20.51
2018-09-11T10:35:23.719Z,21.33
2018-09-11T10:36:58.600Z,21.82
2018-09-11T10:38:33.839Z,21.88
2018-09-11T10:40:08.755Z,21.70
2018-09-11T10:41:45.222Z,21.83
2018-09-11T10:43:20.136Z,21.44
2018-09-11T10:44:55.820Z,21.45
2018-09-11T10:46:35.914Z,21.58
2018-09-11T10:48:11.179Z,21.81
2018-09-11T10:49:47.421Z,22.26
2018-09-11T10:51:23.510Z,22.52
2018-09-11T10:53:00.147Z,22.93
2018-09-11T10:54:34.992Z,23.03
2018-09-11T10:56:09.915Z,23.23
2018-09-11T10:57:45.075Z,22.97
2018-09-11T10:59:19.966Z,23.08
2018-09-11T11:00:55.416Z,23.14
2018-09-11T11:02:30.269Z,23.21
2018-09-11T11:04:05.467Z,23.38
2018-09-11T11:05:40.270Z,23.36
2018-09-11T11:07:15.482Z,23.40
2018-09-11T11:08:50.556Z,23.26
2018-09-11T11:10:33.078Z,23.78
2018-09-11T11:12:09.222Z,24.05
2018-09-11T11:13:44.194Z,23.92
2018-09-11T11:15:19.344Z,24.35
2018-09-11T11:16:54.555Z,23.75
2018-09-11T11:18:29.895Z,22.76
2018-09-11T11:20:05.269Z,22.71
2018-09-11T11:21:40.413Z,22.79
2018-09-11T11:23:16.594Z,22.91
2018-09-11T11:24:51.810Z,23.29
2018-09-11T11:26:29.306Z,23.08
2018-09-11T11:28:05.109Z,22.59
2018-09-11T11:29:40.613Z,22.32
2018-09-11T11:31:16.224Z,22.80
2018-09-11T11:32:52.777Z,22.95
2018-09-11T11:34:28.528Z,23.44
2018-09-11T11:36:06.162Z,23.20
2018-09-11T11:37:45.532Z,22.85
2018-09-11T11:39:22.185Z,23.09
2018-09-11T11:40:58.264Z,23.09
2018-09-11T11:42:36.213Z,23.03
2018-09-11T11:44:12.584Z,23.60
2018-09-11T11:45:52.525Z,23.66
2018-09-11T11:47:32.099Z,24.20
2018-09-11T11:49:08.371Z,23.96
2018-09-11T11:50:47.754Z,23.74
2018-09-11T11:52:23.565Z,24.23
2018-09-11T11:53:59.452Z,23.94
2018-09-11T11:55:34.784Z,24.01
2018-09-11T11:57:10.431Z,24.20
2018-09-11T11:58:46.928Z,24.55
2018-09-11T12:00:21.949Z,24.70
2018-09-11T12:01:57.454Z,24.23
2018-09-11T12:03:34.337Z,23.86
2018-09-11T12:05:11.772Z,23.95
2018-09-11T12:06:47.393Z,24.18
2018-09-11T12:08:24.613Z,24.06
2018-09-11T12:10:00.788Z,24.31
2018-09-11T12:11:36.132Z,24.84
2018-09-11T12:13:12.036Z,24.45
2018-09-11T12:14:52.717Z,24.10
2018-09-11T12:16:29.869Z,24.48
2018-09-11T12:18:06.845Z,24.18
2018-09-11T12:19:43.516Z,23.91
2018-09-11T12:21:18.394Z,23.53
2018-09-11T12:22:57.901Z,23.89
2018-09-11T12:24:33.799Z,24.15
2018-09-11T12:26:09.491Z,24.07
2018-09-11T12:27:44.707Z,24.37
2018-09-11T12:29:20.954Z,24.33
2018-09-11T12:30:57.439Z,24.13
2018-09-11T12:32:32.570Z,24.19
2018-09-11T12:34:10.649Z,24.36
2018-09-11T12:35:46.527Z,24.19
2018-09-11T12:37:23.250Z,24.52
2018-09-11T12:38:58.298Z,24.36
2018-09-11T12:40:34.775Z,24.41
2018-09-11T12:42:10.340Z,24.06
2018-09-11T12:43:46.200Z,24.19
2018-09-11T12:45:23.321Z,24.02
2018-09-11T12:47:02.880Z,24.45
2018-09-11T12:48:43.116Z,24.76
2018-09-11T12:50:19.763Z,25.06
2018-09-11T12:51:59.728Z,24.87
2018-09-11T12:53:36.276Z,24.44
2018-09-11T12:55:13.678Z,24.98
2018-09-11T12:56:50.220Z,24.36
2018-09-11T12:58:26.270Z,23.95
2018-09-11T13:00:04.811Z,24.35
2018-09-11T13:01:41.282Z,24.10
2018-09-11T13:03:19.470Z,23.86
2018-09-11T13:04:55.526Z,23.82
2018-09-11T13:06:32.448Z,23.81
2018-09-11T13:08:08.272Z,23.81
2018-09-11T13:09:47.389Z,23.75
2018-09-11T13:11:24.083Z,24.12
2018-09-11T13:13:00.752Z,24.34
2018-09-11T13:14:40.774Z,24.18
2018-09-11T13:16:22.052Z,24.14
2018-09-11T13:18:02.031Z,24.25
2018-09-11T13:19:39.385Z,23.98
2018-09-11T13:21:17.444Z,24.08
2018-09-11T13:22:55.347Z,24.32
2018-09-11T13:24:40.397Z,24.54
2018-09-11T13:26:19.297Z,24.23
2018-09-11T13:27:56.971Z,24.30
2018-09-11T13:29:35.712Z,24.45
2018-09-11T13:31:13.362Z,24.52
2018-09-11T13:32:51.105Z,24.31
2018-09-11T13:34:32.640Z,24.47
2018-09-11T13:36:12.385Z,24.23
2018-09-11T13:37:48.434Z,24.45
2018-09-11T13:39:25.575Z,24.59
2018-09-11T13:41:01.018Z,24.07
2018-09-11T13:42:37.776Z,24.05
2018-09-11T13:44:14.406Z,24.28
2018-09-11T13:45:57.034Z,24.12
2018-09-11T13:47:35.083Z,23.97
2018-09-11T13:49:11.858Z,23.97
2018-09-11T13:50:49.803Z,23.92
2018-09-11T13:52:26.134Z,24.05
2018-09-11T13:54:01.965Z,24.19
2018-09-11T13:55:40.657Z,24.43
2018-09-11T13:57:20.035Z,24.27
2018-09-11T13:58:56.525Z,24.23
2018-09-11T14:00:33.884Z,24.27
2018-09-11T14:02:12.118Z,24.02
2018-09-11T14:03:50.679Z,23.83
2018-09-11T14:05:28.623Z,24.08
2018-09-11T14:07:11.598Z,24.04
2018-09-11T14:08:49.316Z,24.28
2018-09-11T14:10:32.112Z,24.14
2018-09-11T14:12:09.397Z,24.12
2018-09-11T14:13:46.911Z,24.06
2018-09-11T14:15:24.291Z,23.97
2018-09-11T14:17:01.348Z,24.04
2018-09-11T14:18:37.022Z,24.01
2018-09-11T14:20:12.767Z,23.98
2018-09-11T14:21:48.751Z,24.03
2018-09-11T14:23:25.547Z,24.21
2018-09-11T14:25:01.080Z,24.09
2018-09-11T14:26:37.112Z,24.36
2018-09-11T14:28:15.260Z,24.45
2018-09-11T14:29:52.756Z,24.59
2018-09-11T14:31:31.779Z,24.53
2018-09-11T14:33:10.319Z,24.50
2018-09-11T14:34:51.071Z,24.72
2018-09-11T14:36:37.546Z,24.72
2018-09-11T14:38:15.493Z,24.74
2018-09-11T14:39:51.777Z,24.49
2018-09-11T14:41:28.947Z,24.66
2018-09-11T14:43:05.014Z,24.57
2018-09-11T14:44:48.964Z,24.42
2018-09-11T14:46:28.781Z,24.55
2018-09-11T14:48:14.314Z,24.63
2018-09-11T14:49:52.523Z,24.68
2018-09-11T14:51:30.733Z,24.93
2018-09-11T14:53:07.630Z,24.65
2018-09-11T14:54:44.562Z,24.76
2018-09-11T14:56:22.725Z,24.92
2018-09-11T14:58:01.930Z,24.68
2018-09-11T14:59:42.276Z,24.70
2018-09-11T15:01:24.039Z,24.57
2018-09-11T15:03:00.946Z,24.77
2018-09-11T15:04:38.333Z,24.80
2018-09-11T15:06:23.024Z,25.02
2018-09-11T15:08:03.579Z,24.94
2018-09-11T15:09:47.629Z,24.88
2018-09-11T15:11:26.372Z,25.17
2018-09-11T15:13:04.553Z,25.18
2018-09-11T15:14:44.318Z,25.21
2018-09-11T15:16:23.363Z,25.11
2018-09-11T15:17:58.661Z,25.24
2018-09-11T15:19:34.845Z,25.02
2018-09-11T15:21:11.859Z,25.06
2018-09-11T15:22:50.242Z,25.18
2018-09-11T15:24:28.848Z,25.17
2018-09-11T15:26:06.106Z,25.40
2018-09-11T15:27:42.373Z,25.48
2018-09-11T15:29:19.256Z,25.47
2018-09-11T15:30:55.961Z,25.39
2018-09-11T15:32:35.551Z,25.32
2018-09-11T15:34:11.421Z,25.27
2018-09-11T15:35:49.562Z,25.43
2018-09-11T15:37:25.504Z,25.39
2018-09-11T15:39:09.575Z,25.40
2018-09-11T15:40:47.283Z,25.46
2018-09-11T15:42:23.604Z,25.26
2018-09-11T15:43:59.225Z,24.86
2018-09-11T15:45:36.254Z,24.82
2018-09-11T15:47:13.101Z,24.72
2018-09-11T15:48:50.853Z,24.52
2018-09-11T15:50:26.093Z,24.52
2018-09-11T15:52:01.600Z,24.47
2018-09-11T15:53:37.847Z,24.50
2018-09-11T15:55:14.583Z,24.39
2018-09-11T15:56:52.028Z,24.21
2018-09-11T15:58:36.556Z,24.08
2018-09-11T16:00:39.037Z,24.05
2018-09-11T16:02:43.626Z,23.90
2018-09-11T16:04:31.867Z,23.87
2018-09-11T16:06:11.951Z,23.88
2018-09-11T16:07:52.176Z,23.83
2018-09-11T16:09:31.356Z,23.76
2018-09-11T16:11:10.871Z,23.73
2018-09-11T16:12:48.263Z,23.72
2018-09-11T16:14:29.711Z,23.57
2018-09-11T16:16:08.123Z,23.58
2018-09-11T16:17:51.279Z,23.48
2018-09-11T16:19:30.957Z,23.41
2018-09-11T16:21:09.923Z,23.39
2018-09-11T16:22:48.502Z,23.40
2018-09-11T16:24:26.903Z,23.26
2018-09-11T16:26:09.122Z,23.30
2018-09-11T16:27:44.817Z,23.28
2018-09-11T16:29:23.588Z,23.26
2018-09-11T16:31:03.932Z,23.20
2018-09-11T16:32:43.939Z,23.19
2018-09-11T16:34:28.042Z,23.14
2018-09-11T16:36:06.293Z,23.07
2018-09-11T16:37:45.404Z,23.05
2018-09-11T16:39:37.343Z,22.97
2018-09-11T16:41:22.341Z,22.93
2018-09-11T16:43:07.966Z,22.87
2018-09-11T16:44:51.304Z,22.84
2018-09-11T16:46:35.676Z,22.88
2018-09-11T16:48:13.980Z,22.81
2018-09-11T16:49:57.365Z,22.76
2018-09-11T16:51:37.053Z,22.72
2018-09-11T16:53:13.260Z,22.69
2018-09-11T16:54:50.453Z,22.63
2018-09-11T16:56:29.017Z,22.59
2018-09-11T16:58:11.020Z,22.58
2018-09-11T16:59:49.069Z,22.56
2018-09-11T17:01:25.205Z,22.55
2018-09-11T17:03:09.235Z,22.47
2018-09-11T17:04:51.584Z,22.44
2018-09-11T17:06:36.076Z,22.43
2018-09-11T17:08:15.217Z,22.45
2018-09-11T17:09:52.658Z,22.39
2018-09-11T17:11:30.592Z,22.32
2018-09-11T17:13:10.624Z,22.26
2018-09-11T17:14:48.220Z,22.23
2018-09-11T17:16:25.934Z,22.14
2018-09-11T17:18:05.403Z,22.09
2018-09-11T17:19:42.263Z,22.02
2018-09-11T17:21:27.188Z,21.95
2018-09-11T17:23:03.956Z,21.83
2018-09-11T17:24:44.220Z,21.79
2018-09-11T17:26:23.266Z,21.70
2018-09-11T17:29:48.019Z,21.57
2018-09-11T17:31:31.283Z,21.48
2018-09-11T17:33:12.758Z,21.43
2018-09-11T17:34:52.707Z,21.33
2018-09-11T17:36:36.758Z,21.28
2018-09-11T17:38:18.687Z,21.19
2018-09-11T17:40:05.657Z,21.10
2018-09-11T17:43:29.136Z,20.88
2018-09-11T17:45:18.045Z,20.83
2018-09-11T17:47:01.780Z,20.67
2018-09-11T17:48:38.398Z,20.53
2018-09-11T17:50:14.333Z,20.43
2018-09-11T17:51:54.784Z,20.35
2018-09-11T17:53:32.669Z,20.25
2018-09-11T17:55:07.854Z,20.12
2018-09-11T17:56:48.403Z,19.99
2018-09-11T17:58:24.929Z,19.90
2018-09-11T18:00:06.494Z,19.82
2018-09-11T18:01:47.354Z,19.71
2018-09-11T18:03:24.790Z,19.63
2018-09-11T18:05:02.096Z,19.56
2018-09-11T18:06:38.664Z,19.44
2018-09-11T18:08:14.950Z,19.38
2018-09-11T18:09:57.509Z,19.29
2018-09-11T18:11:35.473Z,19.28
2018-09-11T18:13:13.092Z,19.17
2018-09-11T18:14:49.413Z,19.17
2018-09-11T18:16:26.420Z,19.07
2018-09-11T18:18:05.404Z,19.01
2018-09-11T18:19:42.976Z,18.94
2018-09-11T18:21:19.708Z,18.87
2018-09-11T18:22:57.777Z,18.82
2018-09-11T18:24:36.381Z,18.83
2018-09-11T18:26:12.325Z,18.80
2018-09-11T18:27:48.274Z,18.69
2018-09-11T18:29:37.479Z,18.61
2018-09-11T18:31:19.017Z,18.48
2018-09-11T18:33:06.746Z,18.48
2018-09-11T18:34:46.260Z,18.46
2018-09-11T18:36:25.757Z,18.33
2018-09-11T18:38:06.045Z,18.32
2018-09-11T18:39:43.935Z,18.19
2018-09-11T18:41:22.464Z,18.10
2018-09-11T18:43:17.408Z,18.09
2018-09-11T18:45:05.050Z,17.97
2018-09-11T18:46:49.256Z,17.92
2018-09-11T18:48:31.256Z,17.92
2018-09-11T18:54:12.658Z,17.93
2018-09-11T18:55:57.534Z,17.86
2018-09-11T18:57:37.431Z,17.79
2018-09-11T18:59:19.739Z,17.64
2018-09-11T19:01:01.479Z,17.60
2018-09-11T19:02:39.584Z,17.54
2018-09-11T19:04:15.612Z,17.55
2018-09-11T19:06:06.136Z,17.43
2018-09-11T19:07:50.170Z,17.43
2018-09-11T19:09:29.335Z,17.26
2018-09-11T19:11:05.942Z,17.25
2018-09-11T19:12:41.820Z,17.27
2018-09-11T19:14:28.607Z,17.19
2018-09-11T19:16:18.256Z,17.12
2018-09-11T19:17:56.617Z,17.11
2018-09-11T19:19:41.369Z,17.09
2018-09-11T19:21:26.587Z,17.08
2018-09-11T19:23:04.302Z,17.03
2018-09-11T19:24:52.622Z,16.92
2018-09-11T19:26:49.281Z,16.90
2018-09-11T19:28:29.849Z,16.81
2018-09-11T19:30:13.884Z,16.83
2018-09-11T19:31:50.975Z,16.79
2018-09-11T19:33:30.599Z,16.71
2018-09-11T19:35:12.035Z,16.77
2018-09-11T19:36:51.398Z,16.80
2018-09-11T19:38:33.820Z,16.80
2018-09-11T19:40:11.628Z,16.70
2018-09-11T19:41:54.644Z,16.67
2018-09-11T19:43:30.827Z,16.71
2018-09-11T19:45:13.245Z,16.65
2018-09-11T19:46:51.669Z,16.57
2018-09-11T19:48:27.220Z,16.59
2018-09-11T19:50:04.606Z,16.56
2018-09-11T19:51:44.873Z,16.56
2018-09-11T19:53:24.236Z,16.49
2018-09-11T19:55:04.098Z,16.63
2018-09-11T19:56:39.537Z,16.67
2018-09-11T19:58:24.623Z,16.70
2018-09-11T20:00:08.452Z,16.63
2018-09-11T20:01:48.646Z,16.64
2018-09-11T20:03:26.478Z,16.63
2018-09-11T20:05:05.445Z,16.57
2018-09-11T20:06:44.787Z,16.56
2018-09-11T20:08:23.546Z,16.51
2018-09-11T20:09:59.859Z,16.53
2018-09-11T20:11:37.063Z,16.45
2018-09-11T20:13:15.257Z,16.51
2018-09-11T20:14:51.440Z,16.49
2018-09-11T20:16:30.200Z,16.42
2018-09-11T20:18:12.029Z,16.59
2018-09-11T20:19:52.829Z,16.64
2018-09-11T20:21:34.117Z,16.59
2018-09-11T20:23:11.018Z,16.44
2018-09-11T20:24:49.904Z,16.52
2018-09-11T20:26:25.805Z,16.49
2018-09-11T20:28:07.359Z,16.53
2018-09-11T20:29:49.865Z,16.55
2018-09-11T20:31:34.623Z,16.52
2018-09-11T20:33:16.233Z,16.47
2018-09-11T20:34:57.353Z,16.50
2018-09-11T20:36:38.592Z,16.50
2018-09-11T20:38:16.166Z,16.46
2018-09-11T20:40:16.853Z,16.34
2018-09-11T20:41:54.927Z,16.39
2018-09-11T20:43:32.598Z,16.26
2018-09-11T20:45:16.505Z,16.21
2018-09-11T20:46:58.719Z,16.23
2018-09-11T20:48:52.166Z,16.15
2018-09-11T20:50:30.046Z,16.14
2018-09-11T20:52:11.718Z,16.18
2018-09-11T20:53:50.796Z,16.10
2018-09-11T20:55:29.500Z,16.08
2018-09-11T20:57:08.724Z,16.08
2018-09-11T20:58:47.656Z,16.04
2018-09-11T21:00:25.718Z,16.08
2018-09-11T21:02:01.520Z,16.10
2018-09-11T21:03:41.068Z,16.13
2018-09-11T21:05:20.629Z,15.99
2018-09-11T21:06:57.038Z,15.94